Time;durP1;ratioP1;P1;durP2;ratioP2;P2;SDS_P1;SDS_P2;PMS_P1;PMS_P2;Temp;Humidity;BMP_temperature;BMP_pressure;BME280_temperature;BME280_humidity;BME280_pressure;Samples;Min_cycle;Max_cycle;Signal;HPM_P1;HPM_P2
2022/09/17 00:00:21;;;;;;;;;3.00;1.67;;;;;15.79;48.52;101438.69;5090735;27;46483;-64
2022/09/17 00:02:54;;;;;;;;;21.75;14.00;;;;;15.55;48.67;101401.44;5111308;27;45302;-66
2022/09/17 00:05:20;;;;;;;;;23.50;22.50;;;;;15.72;48.97;101439.41;5111535;27;45715;-68
2022/09/17 00:07:45;;;;;;;;;12.00;12.00;;;;;15.63;48.46;101424.00;5094361;27;45335;-65
2022/09/17 00:10:11;;;;;;;;;1.67;1.67;;;;;15.66;48.29;101449.19;5102664;27;45413;-66
2022/09/17 00:12:36;;;;;;;;;3.67;2.33;;;;;15.50;48.43;101428.28;5098670;27;45580;-67
2022/09/17 00:15:02;;;;;;;;;6.00;4.00;;;;;15.59;49.30;101438.28;5096351;27;45835;-64
2022/09/17 00:17:27;;;;;;;;;3.00;1.00;;;;;15.56;48.94;101438.22;5096869;27;45511;-66
2022/09/17 00:19:52;;;;;;;;;1.00;1.00;;;;;15.42;49.46;101411.97;5099956;27;46281;-64
2022/09/17 00:22:18;;;;;;;;;3.00;1.33;;;;;15.60;48.94;101441.00;5095393;27;58526;-66
2022/09/17 00:24:43;;;;;;;;;4.00;2.00;;;;;15.59;48.86;101423.06;5099305;27;45381;-64
2022/09/17 00:27:08;;;;;;;;;2.00;1.00;;;;;15.62;48.65;101450.03;5100404;27;55081;-63
2022/09/17 00:29:34;;;;;;;;;2.67;2.67;;;;;15.51;48.65;101424.72;5104846;27;60169;-65
2022/09/17 00:31:59;;;;;;;;;2.00;2.00;;;;;15.62;48.82;101433.88;5099203;27;58503;-65
2022/09/17 00:34:24;;;;;;;;;1.67;1.67;;;;;15.66;48.83;101443.81;5099527;27;45455;-66
2022/09/17 00:36:50;;;;;;;;;9.33;5.00;;;;;15.61;48.51;101429.38;5098737;27;54783;-65
2022/09/17 00:39:15;;;;;;;;;6.67;5.67;;;;;15.62;48.60;101435.66;5103815;27;59434;-66
2022/09/17 00:41:42;;;;;;;;;2.67;1.67;;;;;15.67;48.74;101447.41;5100942;27;45458;-64
2022/09/17 00:44:35;;;;;;;;;1.00;1.00;;;;;15.69;48.54;101450.13;5106207;27;45672;-65
2022/09/17 00:47:00;;;;;;;;;2.67;2.67;;;;;15.71;48.77;101449.28;5096728;27;45484;-65
2022/09/17 00:49:29;;;;;;;;;2.00;2.00;;;;;15.77;48.36;101432.31;5099636;27;46101;-65
2022/09/17 00:52:09;;;;;;;;;2.33;2.33;;;;;15.73;48.66;101443.91;5103031;27;45422;-64
2022/09/17 00:54:38;;;;;;;;;0.67;0.67;;;;;15.70;48.61;101438.47;5099196;27;45559;-65
2022/09/17 00:57:03;;;;;;;;;0.67;0.67;;;;;15.59;48.82;101439.22;5098599;27;45501;-67
2022/09/17 00:59:29;;;;;;;;;3.00;2.00;;;;;15.41;49.03;101417.34;5096762;27;46066;-65
2022/09/17 01:01:55;;;;;;;;;3.67;3.67;;;;;15.52;49.14;101439.06;5107701;27;45431;-65
2022/09/17 01:04:23;;;;;;;;;2.00;2.00;;;;;15.42;49.60;101440.69;5103993;27;45115;-64
2022/09/17 01:07:07;;;;;;;;;5.00;2.67;;;;;15.38;49.78;101447.81;5101628;27;45510;-64
2022/09/17 01:09:33;;;;;;;;;2.67;2.00;;;;;15.35;49.73;101449.56;5118919;27;47349;-65
2022/09/17 01:12:19;;;;;;;;;1.33;1.33;;;;;15.34;49.49;101448.63;5099738;27;46354;-66
2022/09/17 01:14:54;;;;;;;;;2.67;1.00;;;;;15.42;49.25;101446.09;5106721;27;45305;-64
2022/09/17 01:17:46;;;;;;;;;4.00;2.67;;;;;15.39;49.41;101448.72;5102419;27;45438;-64
2022/09/17 01:20:39;;;;;;;;;1.67;1.00;;;;;15.38;49.24;101450.50;5097633;27;45680;-63
2022/09/17 01:23:40;;;;;;;;;4.33;2.67;;;;;15.35;49.78;101454.94;5114298;27;45537;-65
2022/09/17 01:26:51;;;;;;;;;2.33;2.00;;;;;15.29;49.53;101451.25;5102883;27;45377;-65
2022/09/17 01:29:16;;;;;;;;;3.33;2.00;;;;;15.27;50.18;101449.41;5106321;27;45678;-65
2022/09/17 01:31:51;;;;;;;;;5.00;3.00;;;;;15.33;49.75;101462.06;5101129;27;45392;-64
2022/09/17 01:34:26;;;;;;;;;3.00;2.00;;;;;15.31;49.90;101459.38;5104169;27;45352;-63
2022/09/17 01:37:13;;;;;;;;;1.67;1.67;;;;;15.33;50.18;101457.59;5103804;27;45499;-65
2022/09/17 01:40:23;;;;;;;;;5.67;1.00;;;;;15.36;49.72;101451.34;5119845;27;45626;-65
2022/09/17 01:42:51;;;;;;;;;1.67;1.67;;;;;15.41;49.84;101458.66;5105448;27;47176;-64
2022/09/17 01:45:26;;;;;;;;;4.33;3.00;;;;;15.48;49.51;101463.25;5105827;27;45447;-64
2022/09/17 01:48:20;;;;;;;;;1.00;1.00;;;;;15.45;49.17;101471.28;5101883;27;45355;-65
2022/09/17 01:51:05;;;;;;;;;2.33;1.00;;;;;15.29;49.33;101450.34;5100718;27;45327;-64
2022/09/17 01:53:40;;;;;;;;;6.33;3.67;;;;;15.44;49.44;101476.63;5101985;27;46456;-64
2022/09/17 01:56:09;;;;;;;;;2.00;2.00;;;;;15.38;49.68;101477.44;5102473;27;45665;-64
2022/09/17 01:58:43;;;;;;;;;4.33;4.33;;;;;15.42;49.47;101478.41;5098936;27;45583;-65
2022/09/17 02:01:13;;;;;;;;;3.00;1.00;;;;;15.21;49.69;101451.97;5097498;27;45277;-64
2022/09/17 02:03:52;;;;;;;;;2.33;1.00;;;;;15.16;49.73;101440.22;5096335;27;45378;-67
2022/09/17 02:06:28;;;;;;;;;0.33;0.33;;;;;15.37;49.83;101477.41;5097390;27;45442;-65
2022/09/17 02:09:00;;;;;;;;;2.00;1.33;;;;;15.40;49.69;101477.47;5107201;27;45592;-64
2022/09/17 02:11:26;;;;;;;;;4.00;2.00;;;;;15.21;49.61;101455.59;5100955;27;45496;-64
2022/09/17 02:14:01;;;;;;;;;2.00;2.00;;;;;15.28;50.12;101483.53;5103190;27;45486;-65
2022/09/17 02:16:31;;;;;;;;;4.67;2.00;;;;;15.28;49.88;101480.84;5099505;27;45319;-65
2022/09/17 02:19:16;;;;;;;;;1.33;1.33;;;;;15.27;50.35;101479.03;5101006;27;45437;-66
2022/09/17 02:21:56;;;;;;;;;4.00;2.00;;;;;15.31;50.21;101475.53;5098328;27;45460;-63
2022/09/17 02:24:32;;;;;;;;;2.00;2.00;;;;;15.16;50.18;101448.28;5096940;27;45996;-65
2022/09/17 02:27:04;;;;;;;;;2.00;2.00;;;;;15.28;50.14;101480.84;5096973;27;45315;-64
2022/09/17 02:29:40;;;;;;;;;2.00;2.00;;;;;15.32;49.88;101479.13;5105988;27;45479;-67
2022/09/17 02:32:06;;;;;;;;;1.67;1.67;;;;;15.20;49.93;101461.84;5103325;27;45238;-65
2022/09/17 02:34:33;;;;;;;;;4.00;2.00;;;;;15.30;49.84;101462.94;5100137;27;46311;-65
2022/09/17 02:36:59;;;;;;;;;1.33;1.33;;;;;15.37;49.90;101470.22;5097454;27;45429;-65
2022/09/17 02:39:25;;;;;;;;;0.33;0.33;;;;;15.38;49.72;101468.47;5102392;27;45624;-65
2022/09/17 02:42:03;;;;;;;;;1.33;1.33;;;;;15.39;49.62;101470.25;5096353;27;45514;-65
2022/09/17 02:44:44;;;;;;;;;7.00;4.00;;;;;15.38;49.30;101469.38;5104871;27;46316;-64
2022/09/17 02:47:24;;;;;;;;;1.00;1.00;;;;;15.27;49.69;101471.84;5103259;27;45478;-64
